Time;durP1;ratioP1;P1;durP2;ratioP2;P2;SDS_P1;SDS_P2;PMS_P1;PMS_P2;Temp;Humidity;BMP_temperature;BMP_pressure;BME280_temperature;BME280_humidity;BME280_pressure;Samples;Min_cycle;Max_cycle;Signal;HPM_P1;HPM_P2
2023/07/14 00:00:36;;;;;;;19.92;15.35;;;;;;;18.05;100.00;101676.19;4985470;28;20215;-73
2023/07/14 00:03:03;;;;;;;22.20;14.93;;;;;;;18.10;100.00;101684.78;4989123;28;20069;-75
2023/07/14 00:05:35;;;;;;;21.27;15.25;;;;;;;18.10;100.00;101679.38;4983660;28;20035;-73
2023/07/14 00:08:03;;;;;;;24.70;14.95;;;;;;;17.92;100.00;101682.72;4986971;28;20066;-73
2023/07/14 00:10:34;;;;;;;17.20;14.35;;;;;;;17.91;100.00;101671.06;4978594;28;20027;-72
2023/07/14 00:13:03;;;;;;;22.15;13.77;;;;;;;17.87;100.00;101669.59;4983737;28;20141;-72
2023/07/14 00:15:31;;;;;;;19.30;13.85;;;;;;;17.88;100.00;101673.19;4983314;28;20030;-74
2023/07/14 00:18:19;;;;;;;18.75;13.43;;;;;;;17.87;100.00;101669.59;4997826;28;20144;-72
2023/07/14 00:20:45;;;;;;;18.10;12.77;;;;;;;17.85;100.00;101680.50;4998001;28;20043;-73
2023/07/14 00:23:11;;;;;;;19.10;13.32;;;;;;;17.77;100.00;101676.72;4985892;28;20046;-72
2023/07/14 00:25:38;;;;;;;21.40;13.88;;;;;;;17.67;100.00;101673.00;4992638;28;20034;-73
2023/07/14 00:28:11;;;;;;;17.05;13.38;;;;;;;17.65;100.00;101675.84;4984962;28;20034;-72
2023/07/14 00:30:37;;;;;;;21.83;13.90;;;;;;;17.89;100.00;101673.03;4979378;28;20100;-72
2023/07/14 00:33:12;;;;;;;18.35;12.43;;;;;;;18.01;100.00;101680.13;4986819;28;20046;-73
2023/07/14 00:35:38;;;;;;;17.63;12.63;;;;;;;18.01;100.00;101685.53;5000111;28;20039;-72
2023/07/14 00:38:05;;;;;;;18.00;13.32;;;;;;;17.82;100.00;101671.81;4989757;28;20563;-74
2023/07/14 00:40:39;;;;;;;17.52;13.60;;;;;;;17.97;100.00;101667.00;4989268;28;20226;-73
2023/07/14 00:43:11;;;;;;;18.23;13.73;;;;;;;18.01;100.00;101669.31;4997501;28;20039;-73
2023/07/14 00:45:37;;;;;;;20.00;13.75;;;;;;;17.98;100.00;101672.31;4985482;28;20038;-73
2023/07/14 00:48:04;;;;;;;19.40;14.65;;;;;;;18.01;100.00;101655.84;4994644;28;20038;-72
2023/07/14 00:50:32;;;;;;;16.40;13.13;;;;;;;18.08;100.00;101664.31;4989454;28;20060;-74
2023/07/14 00:53:02;;;;;;;18.77;12.88;;;;;;;17.98;100.00;101657.94;4997147;28;20089;-71
2023/07/14 00:55:37;;;;;;;20.08;14.07;;;;;;;17.98;100.00;101657.94;4988315;28;20507;-73
2023/07/14 00:58:10;;;;;;;21.63;14.20;;;;;;;18.00;100.00;101655.97;4986943;28;20150;-73
2023/07/14 01:00:35;;;;;;;20.85;14.65;;;;;;;17.85;100.00;101666.16;4982156;28;20031;-73
2023/07/14 01:03:04;;;;;;;18.63;13.77;;;;;;;17.80;100.00;101666.53;4990362;28;20046;-73
2023/07/14 01:05:31;;;;;;;22.58;13.68;;;;;;;17.77;100.00;101661.41;4989674;28;20035;-72
2023/07/14 01:07:57;;;;;;;20.75;14.05;;;;;;;17.82;100.00;101666.41;4982479;28;20039;-72
2023/07/14 01:10:27;;;;;;;20.60;14.10;;;;;;;17.85;100.00;101658.06;4984594;28;20030;-74
2023/07/14 01:13:02;;;;;;;21.48;14.20;;;;;;;17.82;100.00;101652.91;4986375;28;20066;-73
2023/07/14 01:15:28;;;;;;;17.17;12.90;;;;;;;17.72;100.00;101658.19;4986985;28;20047;-74
2023/07/14 01:17:54;;;;;;;23.17;12.93;;;;;;;17.54;100.00;101651.56;4977648;28;20042;-74
2023/07/14 01:20:20;;;;;;;20.67;13.75;;;;;;;17.51;100.00;101659.88;4987547;28;20088;-74
2023/07/14 01:23:13;;;;;;;14.52;12.02;;;;;;;17.42;100.00;101653.41;4989386;28;20840;-74
2023/07/14 01:25:54;;;;;;;24.48;13.45;;;;;;;17.38;100.00;101653.78;4992833;28;20030;-73
2023/07/14 01:28:20;;;;;;;24.50;14.70;;;;;;;17.34;100.00;101654.00;4985189;28;20043;-73
2023/07/14 01:30:46;;;;;;;21.27;14.85;;;;;;;17.32;100.00;101655.97;5002996;28;20081;-73
2023/07/14 01:33:17;;;;;;;19.10;14.73;;;;;;;17.04;100.00;101651.00;4976560;28;21041;-72
2023/07/14 01:35:51;;;;;;;24.02;15.27;;;;;;;17.13;100.00;101650.31;4984947;28;20039;-72
2023/07/14 01:38:17;;;;;;;21.92;14.38;;;;;;;17.30;100.00;101651.66;4982037;28;20107;-72
2023/07/14 01:40:44;;;;;;;22.10;15.57;;;;;;;17.47;100.00;101639.53;4986450;28;20035;-73
2023/07/14 01:43:12;;;;;;;21.60;15.70;;;;;;;17.55;100.00;101647.88;4983199;28;20155;-73
2023/07/14 01:45:50;;;;;;;18.95;14.23;;;;;;;17.55;100.00;101645.19;4976796;28;20058;-72
2023/07/14 01:48:21;;;;;;;25.23;16.08;;;;;;;17.42;100.00;101639.03;4983909;28;20086;-73
2023/07/14 01:50:54;;;;;;;21.00;16.00;;;;;;;17.35;100.00;101639.53;4981550;28;20185;-73
2023/07/14 01:53:28;;;;;;;20.42;16.50;;;;;;;17.34;100.00;101642.38;4977905;28;20062;-72
2023/07/14 01:55:58;;;;;;;21.17;15.90;;;;;;;17.29;100.00;101640.03;4969438;28;20027;-73
2023/07/14 01:58:30;;;;;;;24.58;16.05;;;;;;;17.33;100.00;101637.97;4968072;28;20087;-72
2023/07/14 02:00:56;;;;;;;22.98;15.88;;;;;;;17.33;100.00;101635.25;4983938;28;20136;-72
2023/07/14 02:03:37;;;;;;;20.33;15.75;;;;;;;17.35;100.00;101635.97;4966965;28;20066;-73
2023/07/14 02:06:03;;;;;;;18.52;14.73;;;;;;;17.42;100.00;101633.66;4977333;28;20045;-73
2023/07/14 02:08:29;;;;;;;36.67;17.48;;;;;;;17.41;100.00;101629.25;4983637;28;20852;-73
2023/07/14 02:10:54;;;;;;;24.52;16.83;;;;;;;17.44;100.00;101627.16;4986700;28;20153;-72
2023/07/14 02:13:22;;;;;;;25.23;16.90;;;;;;;17.38;100.00;101635.75;4980882;28;20266;-74
2023/07/14 02:15:50;;;;;;;18.42;15.35;;;;;;;17.40;100.00;101638.31;4984997;28;20038;-73
2023/07/14 02:18:20;;;;;;;24.42;16.35;;;;;;;17.42;100.00;101636.34;4987550;28;20140;-73
2023/07/14 02:20:47;;;;;;;19.48;15.43;;;;;;;17.46;100.00;101629.72;4970044;28;20042;-73
2023/07/14 02:23:20;;;;;;;20.05;15.40;;;;;;;17.39;100.00;101631.22;4988508;28;20061;-75
2023/07/14 02:25:58;;;;;;;25.95;17.02;;;;;;;17.36;100.00;101624.22;4988193;28;20125;-72
2023/07/14 02:28:24;;;;;;;22.00;14.93;;;;;;;17.16;100.00;101620.41;4982062;28;20041;-72
2023/07/14 02:30:59;;;;;;;22.85;15.35;;;;;;;17.03;100.00;101617.81;4977182;28;20055;-72
2023/07/14 02:33:30;;;;;;;21.38;15.77;;;;;;;16.96;100.00;101615.72;4977400;28;20031;-73
2023/07/14 02:36:05;;;;;;;19.15;14.52;;;;;;;16.90;100.00;101619.75;4999993;28;20043;-72
2023/07/14 02:38:31;;;;;;;18.02;14.18;;;;;;;16.86;100.00;101614.72;4990444;28;20046;-74
2023/07/14 02:41:03;;;;;;;22.70;16.02;;;;;;;16.74;100.00;101620.06;4993091;28;20038;-72
2023/07/14 02:43:28;;;;;;;24.38;15.60;;;;;;;16.67;100.00;101610.72;4983712;28;20221;-73
2023/07/14 02:45:57;;;;;;;23.95;15.98;;;;;;;16.64;100.00;101621.72;4992714;28;20051;-72
2023/07/14 02:48:31;;;;;;;23.60;16.48;;;;;;;16.51;100.00;101616.41;4985859;28;20057;-74
2023/07/14 02:50:58;;;;;;;25.80;18.38;;;;;;;16.51;100.00;101629.88;4983566;28;20039;-72
2023/07/14 02:53:23;;;;;;;21.27;15.43;;;;;;;16.59;100.00;101623.91;4985325;28;20039;-72
2023/07/14 02:55:49;;;;;;;23.75;16.90;;;;;;;16.58;100.00;101623.06;4992547;28;20043;-73
2023/07/14 02:58:14;;;;;;;25.33;17.75;;;;;;;16.56;100.00;101625.00;4985614;28;20037;-73
2023/07/14 03:00:40;;;;;;;22.33;16.67;;;;;;;16.48;100.00;101618.50;4984645;28;20035;-72
2023/07/14 03:03:06;;;;;;;23.20;16.35;;;;;;;16.54;100.00;101621.56;4993804;28;20137;-73
2023/07/14 03:05:32;;;;;;;21.38;16.77;;;;;;;16.62;100.00;101623.69;4990098;28;20030;-73
2023/07/14 03:07:58;;;;;;;27.92;18.67;;;;;;;16.66;100.00;101626.97;4990782;28;20054;-73
2023/07/14 03:10:24;;;;;;;22.45;16.10;;;;;;;16.73;100.00;101622.91;4990029;28;20865;-73
2023/07/14 03:12:49;;;;;;;21.50;16.92;;;;;;;16.74;100.00;101614.69;4991300;28;20114;-72
2023/07/14 03:15:15;;;;;;;25.30;17.30;;;;;;;16.78;100.00;101618.88;4976751;28;20141;-73
2023/07/14 03:17:41;;;;;;;23.98;17.85;;;;;;;16.75;100.00;101610.16;4991244;28;20039;-72
2023/07/14 03:20:11;;;;;;;25.23;19.95;;;;;;;16.64;100.00;101615.47;4993661;28;20065;-72
2023/07/14 03:22:36;;;;;;;26.15;18.40;;;;;;;16.67;100.00;101605.34;4987783;28;20035;-72
2023/07/14 03:25:02;;;;;;;26.50;18.30;;;;;;;16.61;100.00;101611.19;4980384;28;20488;-73
2023/07/14 03:27:28;;;;;;;30.83;20.15;;;;;;;16.75;100.00;101605.63;4990974;28;20084;-72
2023/07/14 03:29:55;;;;;;;24.30;19.23;;;;;;;16.76;100.00;101606.47;4971369;28;20864;-73
2023/07/14 03:32:21;;;;;;;22.77;19.55;;;;;;;16.56;100.00;101598.06;4993290;28;20041;-73
2023/07/14 03:34:46;;;;;;;29.80;21.38;;;;;;;16.64;100.00;101607.41;4985328;28;20304;-73
2023/07/14 03:37:12;;;;;;;32.63;22.65;;;;;;;16.51;100.00;101607.47;4986089;28;20561;-73
2023/07/14 03:39:38;;;;;;;29.60;22.30;;;;;;;16.48;100.00;101611.28;4982780;28;20117;-74
2023/07/14 03:42:04;;;;;;;29.23;21.23;;;;;;;16.60;100.00;101612.16;4974715;28;20051;-74
2023/07/14 03:44:32;;;;;;;33.67;21.45;;;;;;;16.59;100.00;101610.44;4982470;28;20054;-73
2023/07/14 03:46:58;;;;;;;32.72;22.27;;;;;;;16.76;100.00;101622.63;4985104;28;20165;-73
2023/07/14 03:49:24;;;;;;;29.35;22.25;;;;;;;16.77;100.00;101611.78;4984341;28;20034;-74
2023/07/14 03:51:49;;;;;;;30.55;22.92;;;;;;;16.85;100.00;101610.31;4987464;28;20117;-73
2023/07/14 03:54:15;;;;;;;29.95;23.55;;;;;;;16.88;100.00;101608.25;4993476;28;20074;-75
2023/07/14 03:56:42;;;;;;;28.25;22.02;;;;;;;17.06;100.00;101606.78;4982386;28;20690;-72
2023/07/14 03:59:08;;;;;;;31.50;22.55;;;;;;;17.11;100.00;101598.34;5001348;28;20038;-74
2023/07/14 04:01:34;;;;;;;32.28;22.85;;;;;;;17.21;100.00;101607.41;4985135;28;20154;-74
2023/07/14 04:03:59;;;;;;;29.08;23.05;;;;;;;17.22;100.00;101603.75;4998403;28;20846;-74
2023/07/14 04:06:25;;;;;;;33.10;23.23;;;;;;;17.20;100.00;101597.63;4989429;28;20038;-74
2023/07/14 04:08:54;;;;;;;31.67;24.65;;;;;;;17.36;100.00;101591.84;4976051;28;20035;-73
2023/07/14 04:11:21;;;;;;;31.80;24.42;;;;;;;17.80;100.00;101593.69;4984717;28;20043;-74
2023/07/14 04:13:46;;;;;;;34.90;24.50;;;;;;;17.87;100.00;101583.25;4990715;28;20022;-74
2023/07/14 04:16:12;;;;;;;30.83;21.70;;;;;;;17.91;100.00;101591.94;4989273;28;20496;-73
2023/07/14 04:18:37;;;;;;;32.80;22.55;;;;;;;18.06;100.00;101583.44;4987945;28;20041;-74
2023/07/14 04:21:13;;;;;;;30.40;22.42;;;;;;;17.99;100.00;101582.25;4984178;28;20563;-73
2023/07/14 04:23:39;;;;;;;29.90;21.77;;;;;;;17.84;100.00;101589.75;4979912;28;20030;-75
2023/07/14 04:26:08;;;;;;;34.38;22.98;;;;;;;17.76;100.00;101589.53;4978240;28;20043;-73
2023/07/14 04:28:35;;;;;;;32.33;24.98;;;;;;;17.69;100.00;101588.28;4988124;28;20168;-74
2023/07/14 04:31:01;;;;;;;26.33;20.38;;;;;;;17.73;100.00;101588.94;4989132;28;20066;-73
2023/07/14 04:33:27;;;;;;;29.30;19.63;;;;;;;17.69;100.00;101587.44;5002419;28;20042;-73
2023/07/14 04:35:54;;;;;;;32.33;22.23;;;;;;;17.79;100.00;101589.28;4980419;28;20033;-74
2023/07/14 04:38:24;;;;;;;29.27;21.83;;;;;;;17.89;100.00;101591.22;4989824;28;20085;-72
2023/07/14 04:40:50;;;;;;;28.40;19.98;;;;;;;17.87;100.00;101577.84;4996413;28;20069;-74
2023/07/14 04:43:18;;;;;;;26.75;20.23;;;;;;;17.90;100.00;101580.31;4990868;28;20065;-73
2023/07/14 04:45:45;;;;;;;28.75;20.83;;;;;;;17.96;100.00;101579.78;5012468;28;20027;-73
2023/07/14 04:48:16;;;;;;;29.20;20.58;;;;;;;17.99;100.00;101579.53;4997486;28;20298;-73
2023/07/14 04:50:45;;;;;;;24.58;20.20;;;;;;;17.99;100.00;101578.69;4983605;28;20031;-73
2023/07/14 04:53:11;;;;;;;27.17;20.65;;;;;;;18.11;100.00;101578.50;4992651;28;20026;-73
2023/07/14 04:55:42;;;;;;;25.90;18.52;;;;;;;18.28;100.00;101570.88;4975905;28;20035;-74
2023/07/14 04:58:09;;;;;;;26.85;20.60;;;;;;;18.37;100.00;101570.06;4981182;28;20133;-73
2023/07/14 05:00:37;;;;;;;28.10;19.88;;;;;;;18.70;100.00;101566.38;4993969;28;20057;-74
2023/07/14 05:03:03;;;;;;;27.75;20.52;;;;;;;18.97;100.00;101562.25;4992771;28;20046;-73
2023/07/14 05:05:28;;;;;;;26.02;20.13;;;;;;;18.98;100.00;101558.59;4989274;28;20046;-74
2023/07/14 05:07:55;;;;;;;27.10;20.20;;;;;;;18.85;100.00;101556.09;4982809;28;20182;-74
2023/07/14 05:10:22;;;;;;;25.42;19.05;;;;;;;18.97;100.00;101562.25;4984582;28;20038;-72
2023/07/14 05:12:52;;;;;;;25.92;19.83;;;;;;;18.94;100.00;101559.84;4993660;28;20042;-72
2023/07/14 05:15:19;;;;;;;23.73;17.67;;;;;;;19.10;100.00;101558.34;4989995;28;20026;-73
2023/07/14 05:17:45;;;;;;;24.80;19.40;;;;;;;19.08;100.00;101563.03;4984635;28;20026;-75
2023/07/14 05:20:13;;;;;;;26.17;19.15;;;;;;;19.23;100.00;101563.53;4992277;28;20073;-71
2023/07/14 05:22:45;;;;;;;25.58;18.35;;;;;;;19.20;100.00;101565.66;4986190;28;20049;-74
2023/07/14 05:25:11;;;;;;;;;;;;;;;19.26;100.00;101557.00;4993922;28;20118;-72
2023/07/14 05:27:38;;;;;;;28.30;19.40;;;;;;;19.21;100.00;101565.50;4990357;28;19961;-72
2023/07/14 05:30:05;;;;;;;25.98;19.92;;;;;;;19.26;100.00;101565.97;5003008;28;20066;-73
2023/07/14 05:32:32;;;;;;;21.02;18.25;;;;;;;19.21;100.00;101562.81;4994987;28;20267;-73
2023/07/14 05:34:58;;;;;;;27.83;19.77;;;;;;;19.32;100.00;101559.16;4999871;28;20034;-72
2023/07/14 05:37:23;;;;;;;31.58;20.85;;;;;;;19.23;100.00;101559.94;4994448;28;20061;-72
2023/07/14 05:39:50;;;;;;;26.80;20.38;;;;;;;19.40;100.00;101560.19;4996632;28;20143;-73
2023/07/14 05:42:15;;;;;;;25.55;19.42;;;;;;;19.51;100.00;101559.22;4992949;28;20039;-73
2023/07/14 05:44:41;;;;;;;22.52;19.25;;;;;;;19.48;100.00;101562.22;5002885;28;20277;-73
2023/07/14 05:47:07;;;;;;;33.80;18.55;;;;;;;19.53;100.00;101556.38;4996906;28;20031;-73
2023/07/14 05:49:33;;;;;;;30.50;21.10;;;;;;;19.57;100.00;101555.94;5005036;28;20888;-73
2023/07/14 05:51:59;;;;;;;31.45;21.17;;;;;;;19.54;100.00;101550.84;4998233;28;20035;-73
2023/07/14 05:54:25;;;;;;;25.80;20.33;;;;;;;19.50;100.00;101552.09;5010715;28;20034;-72
2023/07/14 05:56:51;;;;;;;24.75;19.67;;;;;;;19.49;100.00;101546.84;4992853;28;20043;-73
2023/07/14 05:59:17;;;;;;;24.55;18.00;;;;;;;19.78;100.00;101546.91;5020033;28;20117;-72
2023/07/14 06:01:45;;;;;;;23.13;18.00;;;;;;;19.78;100.00;101555.03;5007865;28;20117;-74
2023/07/14 06:04:12;;;;;;;24.13;17.70;;;;;;;19.85;100.00;101543.53;4992014;28;20046;-73
2023/07/14 06:06:38;;;;;;;28.98;18.27;;;;;;;19.95;100.00;101545.41;5001961;28;20042;-73
2023/07/14 06:09:05;;;;;;;26.52;17.98;;;;;;;20.06;100.00;101545.25;4995561;28;20542;-74
2023/07/14 06:11:31;;;;;;;20.25;16.90;;;;;;;19.81;100.00;101541.25;4989287;28;20037;-73
2023/07/14 06:13:57;;;;;;;24.27;17.23;;;;;;;20.18;100.00;101544.09;4991329;28;20038;-73
2023/07/14 06:16:23;;;;;;;26.85;17.65;;;;;;;20.09;100.00;101542.28;4992207;28;20040;-74
2023/07/14 06:18:51;;;;;;;31.63;17.02;;;;;;;20.14;100.00;101543.56;4987773;28;20830;-72
2023/07/14 06:21:17;;;;;;;24.52;16.00;;;;;;;20.40;100.00;101538.41;4987036;28;20034;-72
2023/07/14 06:23:44;;;;;;;20.77;15.68;;;;;;;20.52;100.00;101535.56;4982936;28;20046;-72
2023/07/14 06:26:10;;;;;;;23.73;14.10;;;;;;;20.40;100.00;101534.84;4994218;28;20039;-72
2023/07/14 06:28:35;;;;;;;20.42;15.07;;;;;;;20.47;100.00;101532.44;4996419;28;20118;-72
2023/07/14 06:31:04;;;;;;;22.50;14.40;;;;;;;20.54;100.00;101533.59;4990758;28;20063;-72
2023/07/14 06:33:31;;;;;;;22.65;15.27;;;;;;;20.80;100.00;101533.81;4990018;28;20048;-74
2023/07/14 06:35:57;;;;;;;17.67;14.13;;;;;;;20.89;100.00;101531.06;4974755;28;20038;-73
2023/07/14 06:38:24;;;;;;;26.60;13.80;;;;;;;21.07;97.81;101530.28;4990481;28;20043;-73
2023/07/14 06:41:02;;;;;;;21.73;13.50;;;;;;;20.67;99.78;101531.41;4990673;28;20065;-72
2023/07/14 06:43:32;;;;;;;15.30;11.27;;;;;;;20.89;99.82;101525.66;4985010;28;20122;-73
2023/07/14 06:45:58;;;;;;;16.85;12.18;;;;;;;21.21;96.52;101527.94;4986354;28;20035;-73
2023/07/14 06:48:25;;;;;;;17.90;12.90;;;;;;;21.26;93.94;101530.22;4983448;28;20042;-74
2023/07/14 06:50:51;;;;;;;14.18;11.07;;;;;;;21.87;94.10;101529.59;4989666;28;20057;-73
2023/07/14 06:53:18;;;;;;;16.85;10.88;;;;;;;21.50;89.41;101526.97;4989871;28;20042;-72
2023/07/14 06:55:44;;;;;;;16.60;10.70;;;;;;;21.61;88.32;101521.34;5013013;28;20040;-73
2023/07/14 06:58:11;;;;;;;14.13;9.18;;;;;;;21.51;89.98;101517.81;4994743;28;20178;-72
2023/07/14 07:00:37;;;;;;;16.40;9.93;;;;;;;21.49;89.25;101516.25;4985202;28;20112;-73
2023/07/14 07:03:04;;;;;;;18.38;10.05;;;;;;;21.91;89.82;101509.25;4987316;28;20047;-72
2023/07/14 07:05:38;;;;;;;13.35;10.18;;;;;;;21.95;88.24;101517.97;4994627;28;20118;-72
2023/07/14 07:08:07;;;;;;;17.27;11.68;;;;;;;21.97;87.54;101511.34;5002315;28;20042;-74
2023/07/14 07:10:34;;;;;;;18.13;10.68;;;;;;;21.48;89.90;101519.97;4978789;28;20031;-73
2023/07/14 07:12:59;;;;;;;21.42;12.13;;;;;;;21.65;89.01;101511.88;4991331;28;20030;-74
2023/07/14 07:15:25;;;;;;;14.82;10.65;;;;;;;22.03;88.37;101511.75;4984440;28;20037;-73
2023/07/14 07:17:50;;;;;;;22.00;12.35;;;;;;;22.34;88.10;101513.09;4993635;28;20568;-73
2023/07/14 07:20:16;;;;;;;15.85;10.57;;;;;;;22.63;84.53;101509.22;4983283;28;20043;-74
2023/07/14 07:22:43;;;;;;;14.45;10.50;;;;;;;22.74;83.73;101507.09;4990679;28;20077;-74
2023/07/14 07:25:09;;;;;;;16.67;10.57;;;;;;;22.97;82.71;101514.72;4987084;28;20042;-73
2023/07/14 07:27:35;;;;;;;17.65;11.48;;;;;;;23.14;82.26;101502.91;4979156;28;20110;-74
2023/07/14 07:30:03;;;;;;;13.90;9.63;;;;;;;22.73;81.98;101504.50;4981388;28;20493;-75
2023/07/14 07:32:29;;;;;;;13.27;7.60;;;;;;;22.44;79.42;101504.81;4995005;28;20035;-75
2023/07/14 07:34:59;;;;;;;13.20;7.60;;;;;;;22.67;74.83;101497.00;4987952;28;20049;-73
2023/07/14 07:37:25;;;;;;;13.80;8.80;;;;;;;22.45;75.50;101493.81;4986344;28;20034;-73
2023/07/14 07:39:54;;;;;;;18.88;8.93;;;;;;;22.54;78.46;101502.00;4999878;28;20097;-72
2023/07/14 07:42:19;;;;;;;13.55;8.38;;;;;;;22.58;79.68;101493.38;4979615;28;20169;-73
2023/07/14 07:44:45;;;;;;;12.82;7.40;;;;;;;22.70;78.82;101493.97;4992061;28;20038;-72
2023/07/14 07:47:12;;;;;;;9.90;6.95;;;;;;;23.08;76.39;101489.09;4986319;28;20062;-72
2023/07/14 07:49:39;;;;;;;11.60;7.00;;;;;;;23.38;76.74;101482.25;4997999;28;20038;-74
2023/07/14 07:52:06;;;;;;;14.65;5.75;;;;;;;23.21;72.67;101481.34;4973789;28;20055;-73
2023/07/14 07:54:31;;;;;;;7.53;5.32;;;;;;;23.23;70.94;101473.84;4984566;28;20045;-73
2023/07/14 07:56:57;;;;;;;8.00;4.68;;;;;;;23.34;70.76;101476.28;4996584;28;20061;-73
2023/07/14 07:59:23;;;;;;;9.35;4.80;;;;;;;23.38;69.16;101471.34;4995249;28;20943;-73
2023/07/14 08:01:48;;;;;;;10.18;5.13;;;;;;;23.79;70.74;101464.16;4985643;28;20677;-73
2023/07/14 08:04:16;;;;;;;7.72;4.70;;;;;;;24.06;68.66;101473.03;4975346;28;20030;-73
2023/07/14 08:06:43;;;;;;;6.88;4.25;;;;;;;23.95;67.85;101468.78;4989181;28;20062;-73
2023/07/14 08:09:09;;;;;;;5.00;4.05;;;;;;;23.87;65.02;101472.34;4982770;28;20030;-74
2023/07/14 08:11:35;;;;;;;8.70;3.92;;;;;;;23.25;66.03;101469.97;4982420;28;20080;-73
2023/07/14 08:14:02;;;;;;;7.60;3.88;;;;;;;23.28;67.20;101474.22;4985945;28;20624;-73
2023/07/14 08:16:31;;;;;;;7.50;3.92;;;;;;;24.13;68.82;101477.63;4979936;28;20039;-73
2023/07/14 08:18:59;;;;;;;9.93;4.43;;;;;;;24.15;65.62;101472.03;5000033;28;20042;-72
2023/07/14 08:21:25;;;;;;;13.23;4.32;;;;;;;24.25;65.23;101462.66;5004460;28;20144;-72
2023/07/14 08:23:51;;;;;;;11.02;4.80;;;;;;;24.56;63.47;101463.84;5008527;28;20043;-73
2023/07/14 08:26:16;;;;;;;6.95;4.47;;;;;;;24.68;64.69;101460.56;4986299;28;20507;-73
2023/07/14 08:28:42;;;;;;;6.65;4.47;;;;;;;24.92;63.24;101456.91;5000043;28;20508;-74
2023/07/14 08:31:11;;;;;;;8.27;4.45;;;;;;;24.45;63.50;101465.03;4987548;28;20039;-72
2023/07/14 08:33:37;;;;;;;7.35;4.00;;;;;;;23.68;64.91;101462.59;5005386;28;20022;-74
2023/07/14 08:36:04;;;;;;;8.85;4.45;;;;;;;23.98;64.84;101461.09;4986729;28;20040;-73
2023/07/14 08:38:33;;;;;;;9.02;4.18;;;;;;;24.38;64.29;101461.28;4987222;28;20051;-73
2023/07/14 08:40:59;;;;;;;9.32;3.85;;;;;;;24.36;62.57;101466.09;4987445;28;20338;-75
2023/07/14 08:43:51;;;;;;;7.85;4.28;;;;;;;23.96;62.96;101465.88;4986092;28;20503;-73
2023/07/14 08:46:26;;;;;;;7.03;3.50;;;;;;;23.98;63.21;101460.25;4992871;28;20041;-73
2023/07/14 08:49:10;;;;;;;5.38;3.72;;;;;;;24.55;64.38;101457.53;4987942;28;20153;-74
2023/07/14 08:51:44;;;;;;;10.80;4.18;;;;;;;24.72;63.50;101458.34;4990034;28;20081;-71
2023/07/14 08:54:17;;;;;;;12.93;5.13;;;;;;;24.50;62.53;101455.31;4997811;28;20093;-74
2023/07/14 08:56:44;;;;;;;10.48;4.55;;;;;;;24.40;63.33;101459.22;4993369;28;20034;-72
2023/07/14 08:59:28;;;;;;;11.65;4.45;;;;;;;24.54;63.54;101459.38;4985823;28;20055;-74
2023/07/14 09:01:57;;;;;;;6.50;3.88;;;;;;;24.30;63.88;101467.59;4993704;28;20043;-73
2023/07/14 09:04:25;;;;;;;8.25;4.13;;;;;;;24.41;65.22;101461.81;4990557;28;20039;-74
2023/07/14 09:06:51;;;;;;;7.72;4.45;;;;;;;24.86;64.43;101459.50;4988746;28;20029;-73
2023/07/14 09:09:24;;;;;;;7.70;4.32;;;;;;;25.04;61.42;101457.34;5000238;28;20037;-73
2023/07/14 09:12:05;;;;;;;6.97;4.25;;;;;;;24.52;61.01;101455.16;4989331;28;20096;-72
2023/07/14 09:14:43;;;;;;;6.97;3.85;;;;;;;25.56;61.22;101446.72;4984877;28;20459;-74
2023/07/14 09:17:37;;;;;;;7.85;4.00;;;;;;;26.62;57.64;101431.31;4989448;28;20077;-73
2023/07/14 09:20:17;;;;;;;7.43;4.30;;;;;;;27.22;58.69;101443.13;4980155;28;20074;-74
2023/07/14 09:22:57;;;;;;;6.65;4.20;;;;;;;27.15;56.74;101432.06;4986783;28;20046;-73
2023/07/14 09:25:37;;;;;;;8.32;4.38;;;;;;;26.98;55.74;101439.63;4979977;28;20037;-73
2023/07/14 09:28:09;;;;;;;7.80;3.92;;;;;;;27.20;56.68;101434.22;4987555;28;20070;-74
2023/07/14 09:30:35;;;;;;;5.80;3.05;;;;;;;27.22;55.17;101435.75;4977402;28;20038;-73
2023/07/14 09:33:03;;;;;;;7.07;2.70;;;;;;;27.83;56.41;101432.63;4985536;28;20359;-75
2023/07/14 09:35:29;;;;;;;11.00;3.97;;;;;;;27.56;54.37;101434.22;4997584;28;20030;-74
2023/07/14 09:38:14;;;;;;;6.10;3.60;;;;;;;26.51;54.80;101437.28;5001281;28;20038;-73
2023/07/14 09:40:43;;;;;;;7.18;3.30;;;;;;;26.35;56.16;101430.88;4985482;28;20037;-73
2023/07/14 09:43:10;;;;;;;6.97;3.40;;;;;;;26.20;56.73;101438.19;4991579;28;20050;-73
2023/07/14 09:45:39;;;;;;;10.50;3.90;;;;;;;26.47;56.04;101442.25;4981913;28;20122;-74
2023/07/14 09:48:16;;;;;;;8.32;3.65;;;;;;;26.70;57.07;101435.84;4984805;28;20031;-72
2023/07/14 09:50:59;;;;;;;7.43;3.63;;;;;;;27.07;55.95;101426.69;4982870;28;20042;-72
2023/07/14 09:53:26;;;;;;;8.25;3.47;;;;;;;26.65;55.07;101424.63;4978868;28;20523;-73
2023/07/14 09:56:13;;;;;;;8.75;3.78;;;;;;;26.63;54.19;101423.97;4992953;28;20035;-73
2023/07/14 09:58:59;;;;;;;7.68;4.22;;;;;;;26.63;56.43;101423.97;4993694;28;20050;-73
2023/07/14 10:01:25;;;;;;;6.68;3.05;;;;;;;25.94;57.35;101433.13;4978901;28;20038;-72
2023/07/14 10:03:54;;;;;;;8.10;3.35;;;;;;;26.21;54.93;101420.78;4984172;28;20047;-74
2023/07/14 10:06:29;;;;;;;7.53;3.10;;;;;;;26.41;54.48;101415.63;4985089;28;20042;-73
2023/07/14 10:09:04;;;;;;;6.80;3.60;;;;;;;26.45;55.37;101416.97;4986992;28;20039;-74
2023/07/14 10:11:42;;;;;;;8.05;3.80;;;;;;;26.20;56.02;101410.84;4994564;28;20841;-73
2023/07/14 10:14:25;;;;;;;7.45;4.07;;;;;;;26.31;57.55;101401.38;4986219;28;20038;-74
2023/07/14 10:16:53;;;;;;;9.00;3.42;;;;;;;26.70;56.95;101406.59;4991335;28;20039;-73
2023/07/14 10:19:21;;;;;;;4.93;3.30;;;;;;;26.60;57.41;101400.56;4983608;28;20782;-74
2023/07/14 10:21:57;;;;;;;4.55;3.40;;;;;;;26.91;55.62;101397.63;4984247;28;20046;-73
2023/07/14 10:24:23;;;;;;;9.07;3.50;;;;;;;26.51;54.59;101398.97;4991004;28;20137;-73
2023/07/14 10:27:01;;;;;;;7.90;4.05;;;;;;;26.34;55.05;101395.50;4979457;28;20077;-73
2023/07/14 10:29:49;;;;;;;4.57;3.00;;;;;;;26.91;54.58;101383.94;4998733;28;20046;-73
2023/07/14 10:32:29;;;;;;;7.72;3.67;;;;;;;26.70;55.50;101386.59;4991622;28;20154;-73
2023/07/14 10:35:17;;;;;;;9.85;3.30;;;;;;;26.71;55.19;101374.59;4998280;28;20045;-72
2023/07/14 10:37:51;;;;;;;6.95;3.78;;;;;;;26.85;56.79;101376.47;4991641;28;20043;-72
2023/07/14 10:40:19;;;;;;;6.65;3.28;;;;;;;27.17;54.76;101369.75;4991247;28;20035;-73
2023/07/14 10:43:02;;;;;;;5.32;3.13;;;;;;;27.35;53.95;101363.81;4999372;28;20042;-73
2023/07/14 10:45:29;;;;;;;4.63;3.00;;;;;;;28.05;52.96;101364.91;4997694;28;20030;-73
2023/07/14 10:48:00;;;;;;;6.97;3.35;;;;;;;28.09;53.12;101364.31;4990149;28;20030;-73
2023/07/14 10:50:33;;;;;;;;;;;;;;;28.24;50.18;101355.97;5002955;28;20085;-73
2023/07/14 10:53:13;;;;;;;9.15;3.90;;;;;;;27.86;51.61;101350.84;4993216;28;20032;-73
2023/07/14 10:55:43;;;;;;;9.90;3.75;;;;;;;27.96;50.83;101355.13;4998503;28;20053;-73
2023/07/14 10:58:19;;;;;;;7.70;3.25;;;;;;;27.96;51.32;101350.47;5023973;28;20041;-74
2023/07/14 11:01:05;;;;;;;4.68;2.85;;;;;;;28.35;49.85;101360.09;4996451;28;20026;-74
2023/07/14 11:03:38;;;;;;;4.35;3.00;;;;;;;28.23;48.99;101346.06;4995741;28;20055;-73
2023/07/14 11:06:18;;;;;;;5.40;2.80;;;;;;;28.05;51.28;101343.81;5015179;28;20034;-73
2023/07/14 11:08:51;;;;;;;4.25;2.67;;;;;;;27.87;50.57;101349.81;4999814;28;20043;-73
2023/07/14 11:11:22;;;;;;;5.72;2.90;;;;;;;28.03;49.92;101347.81;5008745;28;20620;-74
2023/07/14 11:14:19;;;;;;;9.40;3.35;;;;;;;28.09;49.31;101347.84;5009520;28;20077;-73
2023/07/14 11:17:09;;;;;;;6.00;3.28;;;;;;;28.53;50.42;101343.09;4995631;28;20340;-74
2023/07/14 11:20:03;;;;;;;5.25;2.92;;;;;;;28.44;49.98;101347.91;5012471;28;20034;-73